createdAt,value
2019-02-09T00:00:31.947Z,6.20
2019-02-09T00:05:28.160Z,6.20
2019-02-09T00:10:23.360Z,6.20
2019-02-09T00:15:19.212Z,6.20
2019-02-09T00:20:16.741Z,6.20
2019-02-09T00:25:16.043Z,6.20
2019-02-09T00:30:13.223Z,6.10
2019-02-09T00:35:10.969Z,6.20
2019-02-09T00:40:08.220Z,6.20
2019-02-09T00:45:06.330Z,6.20
2019-02-09T00:49:59.760Z,6.20
2019-02-09T00:54:55.229Z,6.20
2019-02-09T00:59:54.218Z,6.10
2019-02-09T01:04:47.991Z,6.20
2019-02-09T01:09:42.310Z,6.10
2019-02-09T01:14:37.236Z,6.10
2019-02-09T01:19:31.831Z,6.10
2019-02-09T01:24:26.038Z,6.00
2019-02-09T01:29:22.222Z,5.90
2019-02-09T01:34:17.905Z,5.80
2019-02-09T01:39:13.537Z,5.70
2019-02-09T01:44:10.075Z,5.80
2019-02-09T01:49:07.975Z,5.80
2019-02-09T01:54:03.659Z,5.80
2019-02-09T01:58:58.095Z,5.80
2019-02-09T02:03:55.031Z,5.80
2019-02-09T02:08:51.483Z,5.90
2019-02-09T02:13:47.001Z,5.90
2019-02-09T02:18:42.419Z,5.80
2019-02-09T02:23:36.603Z,5.80
2019-02-09T02:28:31.170Z,5.70
2019-02-09T02:33:26.512Z,5.80
2019-02-09T02:38:21.374Z,5.80
2019-02-09T02:43:15.607Z,5.80
2019-02-09T02:48:09.905Z,5.90
2019-02-09T02:53:06.595Z,5.90
2019-02-09T02:58:01.780Z,5.80
2019-02-09T03:02:57.617Z,5.70
2019-02-09T03:07:54.221Z,5.70
2019-02-09T03:12:49.405Z,5.60
2019-02-09T03:17:44.313Z,5.50
2019-02-09T03:22:40.870Z,5.50
2019-02-09T03:27:35.358Z,5.40
2019-02-09T03:32:31.038Z,5.30
2019-02-09T03:37:26.062Z,5.20
2019-02-09T03:42:21.707Z,5.20
2019-02-09T03:52:12.913Z,5.00
2019-02-09T03:57:09.571Z,5.00
2019-02-09T04:02:05.074Z,5.00
2019-02-09T04:11:59.107Z,5.10
2019-02-09T04:16:54.531Z,5.10
2019-02-09T04:21:49.291Z,5.10
2019-02-09T04:26:44.578Z,5.10
2019-02-09T04:31:39.815Z,5.10
2019-02-09T04:36:35.363Z,5.10
2019-02-09T04:41:29.622Z,5.10
2019-02-09T04:46:24.534Z,5.20
2019-02-09T04:51:19.623Z,5.30
2019-02-09T04:56:18.998Z,5.40
2019-02-09T05:01:14.270Z,5.40
2019-02-09T05:06:08.894Z,5.60
2019-02-09T05:11:06.479Z,5.70
2019-02-09T05:16:02.239Z,5.80
2019-02-09T05:20:57.285Z,5.80
2019-02-09T05:25:52.013Z,5.90
2019-02-09T05:30:49.251Z,5.90
2019-02-09T05:35:43.804Z,5.90
2019-02-09T05:40:38.453Z,5.80
2019-02-09T05:45:34.202Z,5.80
2019-02-09T05:50:30.419Z,5.80
2019-02-09T05:55:26.508Z,5.70
2019-02-09T06:00:31.273Z,5.70
2019-02-09T06:05:25.367Z,5.70
2019-02-09T06:10:24.460Z,5.70
2019-02-09T06:15:28.417Z,5.70
2019-02-09T06:20:29.667Z,5.80
2019-02-09T06:25:25.448Z,5.80
2019-02-09T06:30:22.175Z,5.90
2019-02-09T06:35:16.478Z,6.00
2019-02-09T06:40:13.551Z,6.10
2019-02-09T06:45:13.728Z,6.20
2019-02-09T06:50:14.577Z,6.20
2019-02-09T06:55:12.126Z,6.20
2019-02-09T07:00:10.807Z,6.30
2019-02-09T07:05:09.863Z,6.40
2019-02-09T07:10:06.356Z,6.50
2019-02-09T07:15:02.126Z,6.60
2019-02-09T07:19:56.284Z,6.80
2019-02-09T07:24:51.177Z,6.90
2019-02-09T07:29:46.444Z,7.00
2019-02-09T07:34:41.121Z,7.20
2019-02-09T07:39:41.125Z,7.20
2019-02-09T07:44:35.042Z,7.30
2019-02-09T07:49:29.361Z,7.40
2019-02-09T07:54:24.011Z,7.40
2019-02-09T07:59:19.686Z,7.50
2019-02-09T08:04:14.660Z,7.40
2019-02-09T08:09:14.913Z,7.50
2019-02-09T08:14:09.256Z,7.60
2019-02-09T08:19:05.880Z,7.60
2019-02-09T08:24:02.963Z,7.60
2019-02-09T08:29:03.238Z,7.70
2019-02-09T08:33:57.253Z,7.90
2019-02-09T08:38:51.387Z,8.40
2019-02-09T08:43:51.734Z,8.80
2019-02-09T08:48:46.028Z,9.30
2019-02-09T08:53:40.153Z,9.50
2019-02-09T08:58:35.859Z,9.80
2019-02-09T09:03:33.049Z,10.40
2019-02-09T09:08:32.352Z,10.90
2019-02-09T09:13:26.292Z,11.20
2019-02-09T09:18:23.009Z,13.80
2019-02-09T09:23:18.929Z,18.10
2019-02-09T09:28:12.978Z,20.20
2019-02-09T09:33:08.956Z,18.30
2019-02-09T09:38:03.461Z,17.20
2019-02-09T09:42:58.273Z,17.60
2019-02-09T09:47:58.106Z,22.30
2019-02-09T09:52:54.105Z,27.00
2019-02-09T09:57:47.962Z,29.40
2019-02-09T10:02:42.303Z,29.70
2019-02-09T10:07:40.819Z,31.10
2019-02-09T10:12:34.812Z,31.10
2019-02-09T10:17:29.069Z,31.20
2019-02-09T10:22:23.637Z,31.70
2019-02-09T10:27:17.647Z,32.60
2019-02-09T10:32:13.556Z,32.20
2019-02-09T10:37:09.878Z,31.70
2019-02-09T10:42:03.695Z,31.70
2019-02-09T10:46:59.807Z,32.30
2019-02-09T10:51:55.351Z,32.60
2019-02-09T10:56:49.678Z,33.30
2019-02-09T11:01:44.796Z,33.30
2019-02-09T11:06:40.846Z,34.20
2019-02-09T11:11:43.798Z,34.70
2019-02-09T11:16:37.702Z,34.80
2019-02-09T11:21:33.029Z,34.10
2019-02-09T11:26:28.132Z,33.80
2019-02-09T11:31:26.055Z,32.80
2019-02-09T11:36:21.263Z,32.80
2019-02-09T11:41:15.663Z,31.40
2019-02-09T11:46:11.370Z,30.00
2019-02-09T11:51:06.562Z,29.50
2019-02-09T11:56:01.169Z,29.20
2019-02-09T12:00:55.626Z,27.80
2019-02-09T12:05:49.721Z,26.20
2019-02-09T12:10:43.983Z,23.60
2019-02-09T12:15:38.903Z,21.70
2019-02-09T12:20:34.251Z,19.70
2019-02-09T12:25:36.911Z,17.80
2019-02-09T12:30:34.454Z,16.70
2019-02-09T12:35:29.929Z,15.80
2019-02-09T12:40:34.453Z,15.40
2019-02-09T12:45:37.289Z,14.80
2019-02-09T12:50:33.564Z,14.20
2019-02-09T12:55:30.633Z,13.90
2019-02-09T13:00:27.167Z,13.70
2019-02-09T13:05:21.673Z,13.50
2019-02-09T13:10:23.040Z,13.50
2019-02-09T13:15:34.942Z,13.50
2019-02-09T13:20:26.779Z,13.60
2019-02-09T13:25:22.276Z,13.40
2019-02-09T13:30:21.442Z,13.30
2019-02-09T13:35:16.299Z,13.30
2019-02-09T13:40:18.418Z,13.20
2019-02-09T13:45:21.939Z,13.30
2019-02-09T13:50:19.310Z,13.30
2019-02-09T13:55:15.032Z,13.10
2019-02-09T14:00:14.759Z,12.80
2019-02-09T14:05:12.070Z,12.70
2019-02-09T14:10:11.827Z,12.40
2019-02-09T14:15:11.072Z,12.30
2019-02-09T14:20:15.081Z,12.20
2019-02-09T14:25:15.094Z,12.00
2019-02-09T14:30:17.386Z,11.90
2019-02-09T14:35:12.421Z,11.80
2019-02-09T14:40:11.343Z,11.70
2019-02-09T14:45:11.603Z,11.60
2019-02-09T14:50:11.254Z,11.30
2019-02-09T14:55:07.560Z,11.10
2019-02-09T15:00:00.391Z,11.00
2019-02-09T15:04:57.195Z,10.90
2019-02-09T15:09:52.039Z,10.70
2019-02-09T15:14:46.494Z,10.70
2019-02-09T15:19:44.992Z,10.90
2019-02-09T15:24:39.290Z,11.00
2019-02-09T15:29:33.839Z,11.00
2019-02-09T15:34:28.931Z,10.90
2019-02-09T15:39:26.051Z,10.80
2019-02-09T15:44:20.227Z,10.60
2019-02-09T15:54:08.427Z,10.20
2019-02-09T15:59:02.838Z,10.00
2019-02-09T16:03:56.934Z,9.80
2019-02-09T16:08:51.467Z,9.70
2019-02-09T16:13:51.862Z,9.50
2019-02-09T16:18:45.804Z,9.30
2019-02-09T16:23:39.795Z,9.20
2019-02-09T16:28:34.106Z,9.00
2019-02-09T16:33:30.006Z,9.00
2019-02-09T16:38:25.414Z,9.00
2019-02-09T16:43:20.143Z,8.90
2019-02-09T16:48:14.227Z,8.70
2019-02-09T16:53:08.970Z,8.60
2019-02-09T16:58:05.110Z,8.70
2019-02-09T17:02:59.371Z,8.80
2019-02-09T17:07:58.570Z,8.90
2019-02-09T17:12:52.731Z,8.90
2019-02-09T17:17:46.851Z,8.90
2019-02-09T17:22:45.650Z,8.90
2019-02-09T17:27:40.900Z,8.90
2019-02-09T17:32:34.957Z,8.90
2019-02-09T17:37:29.179Z,9.00
2019-02-09T17:42:24.966Z,9.00
2019-02-09T17:47:18.910Z,8.90
2019-02-09T17:52:14.561Z,9.00
2019-02-09T17:57:08.990Z,9.00
2019-02-09T18:02:04.071Z,9.00
2019-02-09T18:07:00.221Z,9.00
2019-02-09T18:11:55.905Z,9.10
2019-02-09T18:16:49.858Z,9.10
2019-02-09T18:21:45.148Z,9.10
2019-02-09T18:26:43.034Z,9.10
2019-02-09T18:31:38.072Z,9.10
2019-02-09T18:36:32.373Z,9.20
2019-02-09T18:41:27.256Z,9.10
2019-02-09T18:46:24.684Z,8.90
2019-02-09T18:51:18.522Z,8.90
2019-02-09T18:56:17.475Z,8.90
2019-02-09T19:01:11.850Z,8.90
2019-02-09T19:06:09.123Z,8.90
2019-02-09T19:11:05.244Z,8.90
2019-02-09T19:15:59.294Z,8.60
2019-02-09T19:20:56.628Z,8.70
2019-02-09T19:25:51.290Z,8.70
2019-02-09T19:30:46.596Z,8.60
2019-02-09T19:35:41.967Z,8.50
2019-02-09T19:40:36.522Z,8.50
2019-02-09T19:45:38.510Z,8.50
2019-02-09T19:50:36.403Z,8.40
2019-02-09T19:55:31.907Z,8.30
2019-02-09T20:00:32.384Z,8.30
2019-02-09T20:05:26.958Z,8.30
2019-02-09T20:10:30.103Z,8.30
2019-02-09T20:15:28.075Z,8.40
2019-02-09T20:20:22.937Z,8.40
2019-02-09T20:25:19.428Z,8.40
2019-02-09T20:30:24.568Z,8.30
2019-02-09T20:35:27.527Z,8.40
2019-02-09T20:40:34.820Z,8.40
2019-02-09T20:45:31.142Z,8.30
2019-02-09T20:50:26.513Z,8.30
2019-02-09T20:55:21.191Z,8.30
2019-02-09T21:00:27.744Z,8.30
2019-02-09T21:05:25.125Z,8.20
2019-02-09T21:10:26.831Z,8.20
2019-02-09T21:15:23.145Z,8.10
2019-02-09T21:20:17.699Z,8.00
2019-02-09T21:25:16.806Z,8.00
2019-02-09T21:30:18.038Z,8.00
2019-02-09T21:35:13.934Z,8.00
2019-02-09T21:40:10.877Z,7.80
2019-02-09T21:45:10.960Z,7.80
2019-02-09T21:50:10.634Z,7.90
2019-02-09T21:55:09.793Z,7.90
2019-02-09T22:00:10.322Z,8.00
2019-02-09T22:05:07.963Z,8.10
2019-02-09T22:10:08.348Z,8.10
2019-02-09T22:15:06.336Z,8.00
2019-02-09T22:20:00.478Z,7.90
2019-02-09T22:24:57.651Z,8.00
2019-02-09T22:29:54.191Z,8.00
2019-02-09T22:34:52.202Z,7.90
2019-02-09T22:39:46.473Z,7.70
2019-02-09T22:44:43.008Z,7.70
2019-02-09T22:49:39.296Z,7.80
2019-02-09T22:54:33.426Z,7.70
2019-02-09T22:59:27.726Z,7.50
2019-02-09T23:04:28.789Z,7.40
2019-02-09T23:09:22.913Z,7.60
2019-02-09T23:14:18.488Z,7.60
2019-02-09T23:19:15.676Z,7.60
2019-02-09T23:24:09.776Z,7.40
2019-02-09T23:29:08.372Z,7.10
2019-02-09T23:34:02.669Z,7.10
2019-02-09T23:38:56.557Z,7.20
2019-02-09T23:43:51.270Z,7.40
2019-02-09T23:48:47.046Z,7.50
2019-02-09T23:53:44.893Z,7.50
2019-02-09T23:58:38.777Z,7.60
